Observations for BOLZANO CIV IT-AFB, Italy (LIPB)

LIPB 201950Z 00000KT CAVOK 06/00 Q1025  
LIPB 201950Z 00000KT CAVOK 06/00 Q1025 RMK MON INVIS
LIPB 201850Z 15002KT CAVOK 04/00 Q1024  
LIPB 201850Z 15002KT CAVOK 04/00 Q1024 RMK MON INVIS
LIPB 201750Z VRB02KT CAVOK 08/00 Q1023  
LIPB 201750Z VRB02KT CAVOK 08/00 Q1023 RMK MON INVIS
LIPB 201650Z 00000KT CAVOK 11/M01 Q1022 
LIPB 201650Z 00000KT CAVOK 11/M01 Q1022 RMK MON LIB
LIPB 201550Z VRB02KT CAVOK 13/M02 Q1022 
LIPB 201550Z VRB02KT CAVOK 13/M02 Q1022 RMK MON INVIS
LIPB 201450Z VRB02KT CAVOK 14/M02 Q1022 
LIPB 201450Z VRB02KT CAVOK 14/M02 Q1022 RMK MON LIB
LIPB 201350Z VRB03KT CAVOK 13/M02 Q1022 
LIPB 201350Z VRB03KT CAVOK 13/M02 Q1022 RMK MON LIB
LIPB 201250Z VRB02KT CAVOK 12/M02 Q1023 
LIPB 201250Z VRB02KT CAVOK 12/M02 Q1023 RMK MON LIB
LIPB 201150Z VRB02KT CAVOK 11/M02 Q1024 
LIPB 201150Z VRB02KT CAVOK 11/M02 Q1024 RMK MON LIB
LIPB 201050Z VRB01KT CAVOK 08/M02 Q1025 
LIPB 201050Z VRB01KT CAVOK 08/M02 Q1025 RMK MON LIB
LIPB 200950Z VRB01KT CAVOK 06/M02 Q1025 
LIPB 200950Z VRB01KT CAVOK 06/M02 Q1025 RMK MON LIB
LIPB 200850Z VRB01KT CAVOK 05/M02 Q1025 
LIPB 200850Z VRB01KT CAVOK 05/M02 Q1025 RMK MON LIB
LIPB 200750Z VRB01KT CAVOK 00/M02 Q1025 
LIPB 200750Z VRB01KT CAVOK 00/M02 Q1025 RMK MON LIB
LIPB 200650Z 00000KT CAVOK M02/M04 Q1025
LIPB 200650Z 00000KT CAVOK M02/M04 Q1025 RMK MON LIB
LIPB 200550Z 00000KT CAVOK M02/M03 Q1024
LIPB 200550Z 00000KT CAVOK M02/M03 Q1024 RMK MON LIB
LIPB 192150Z VRB01KT CAVOK 02/M02 Q1023 
LIPB 192150Z VRB01KT CAVOK 02/M02 Q1023 RMK MON INVIS
LIPB 192050Z 00000KT CAVOK 03/M02 Q1022 
LIPB 192050Z 00000KT CAVOK 03/M02 Q1022 RMK MON INVIS
LIPB 191950Z VRB02KT CAVOK 03/M02 Q1022 
LIPB 191950Z VRB02KT CAVOK 03/M02 Q1022 RMK MON INVIS